Aviation Digital Data Service (ADDS)

Output produced by METARs form (0642 UTC 21 August 2017)
found at http://aviationweather.gov/adds/metars/
 
KRUT 210527Z 2106/2206 13008KT P6SM FEW250 
     FM211300 25008KT P6SM FEW250 
     FM220000 14004KT P6SM FEW250